Time;durP1;ratioP1;P1;durP2;ratioP2;P2;SDS_P1;SDS_P2;PMS_P1;PMS_P2;Temp;Humidity;BMP_temperature;BMP_pressure;BME280_temperature;BME280_humidity;BME280_pressure;Samples;Min_cycle;Max_cycle;Signal;HPM_P1;HPM_P2
2022/03/05 00:00:30;;;;;;;;;56.00;43.00;;;;;9.31;78.16;100978.78;5097148;27;45630;-72
2022/03/05 00:02:56;;;;;;;;;57.25;42.50;;;;;9.32;78.02;100985.75;5096907;27;45468;-71
2022/03/05 00:05:22;;;;;;;;;55.25;43.25;;;;;9.31;78.08;100981.41;5097441;27;45346;-69
2022/03/05 00:07:47;;;;;;;;;48.50;36.50;;;;;9.29;77.76;100978.84;5097860;27;45282;-71
2022/03/05 00:10:14;;;;;;;;;53.50;40.25;;;;;9.25;77.84;100977.22;5096872;27;46367;-70
2022/03/05 00:12:39;;;;;;;;;56.25;41.75;;;;;9.20;78.36;100973.88;5096923;27;45390;-72
2022/03/05 00:15:05;;;;;;;;;51.25;42.00;;;;;9.18;78.32;100979.13;5096954;27;45312;-68
2022/03/05 00:17:31;;;;;;;;;57.00;43.50;;;;;9.20;78.33;100987.81;5097194;27;45351;-74
2022/03/05 00:19:57;;;;;;;;;56.50;42.75;;;;;9.21;78.26;100978.22;5096603;27;46085;-68
2022/03/05 00:22:23;;;;;;;;;54.50;39.75;;;;;9.20;78.45;100977.31;5095727;27;45244;-69
2022/03/05 00:24:49;;;;;;;;;55.00;43.25;;;;;9.22;78.43;100974.69;5097551;27;45310;-70
2022/03/05 00:27:15;;;;;;;;;60.50;45.00;;;;;9.23;78.13;100975.53;5096147;27;45566;-70
2022/03/05 00:29:40;;;;;;;;;56.00;43.50;;;;;9.25;78.28;100976.34;5094950;27;46206;-70
2022/03/05 00:32:06;;;;;;;;;59.25;44.75;;;;;9.25;78.25;100973.72;5096530;27;45404;-70
2022/03/05 00:34:31;;;;;;;;;57.25;44.00;;;;;9.25;78.28;100979.84;5096545;27;45454;-69
2022/03/05 00:36:57;;;;;;;;;57.00;44.00;;;;;9.24;78.21;100985.13;5112893;27;45589;-69
2022/03/05 00:39:22;;;;;;;;;56.00;41.00;;;;;9.20;78.26;100976.47;5096647;27;46160;-69
2022/03/05 00:41:48;;;;;;;;;53.00;41.50;;;;;9.21;78.60;100973.81;5096531;27;45381;-69
2022/03/05 00:44:13;;;;;;;;;57.25;43.50;;;;;9.19;78.13;100965.09;5096487;27;45378;-70
2022/03/05 00:46:40;;;;;;;;;58.75;44.75;;;;;9.18;78.36;100973.03;5096822;27;45310;-68
2022/03/05 00:49:06;;;;;;;;;55.25;44.75;;;;;9.15;78.43;100968.72;5096368;27;45388;-70
2022/03/05 00:51:31;;;;;;;;;53.00;42.25;;;;;9.14;78.39;100969.63;5096157;27;45290;-67
2022/03/05 00:53:57;;;;;;;;;50.75;40.75;;;;;9.15;78.22;100968.72;5096445;27;45278;-69
2022/03/05 00:56:23;;;;;;;;;53.25;42.00;;;;;9.19;78.26;100975.59;5096993;27;45457;-71
2022/03/05 00:58:48;;;;;;;;;52.25;40.75;;;;;9.20;77.92;100971.25;5096085;27;45301;-69
2022/03/05 01:01:13;;;;;;;;;53.25;42.75;;;;;9.23;77.95;100968.53;5096165;27;45237;-67
2022/03/05 01:03:39;;;;;;;;;58.25;43.75;;;;;9.26;77.47;100970.19;5096201;27;45286;-70
2022/03/05 01:06:05;;;;;;;;;52.50;39.25;;;;;9.22;77.23;100966.81;5096608;27;45877;-72
2022/03/05 01:08:30;;;;;;;;;56.25;43.50;;;;;9.20;77.58;100969.47;5096027;27;47052;-72
2022/03/05 01:10:56;;;;;;;;;47.75;38.50;;;;;9.16;77.34;100962.56;5111938;27;45411;-70
2022/03/05 01:13:21;;;;;;;;;55.75;43.75;;;;;9.16;77.22;100964.34;5096143;27;45471;-68
2022/03/05 01:15:46;;;;;;;;;53.25;43.25;;;;;9.09;77.20;100968.91;5095949;27;45531;-71
2022/03/05 01:18:12;;;;;;;;;50.75;42.25;;;;;9.03;77.90;100969.06;5095898;27;46343;-69
2022/03/05 01:20:38;;;;;;;;;50.25;39.00;;;;;8.97;77.56;100964.00;5094596;27;45862;-71
2022/03/05 01:23:03;;;;;;;;;49.50;37.25;;;;;9.02;77.71;100964.72;5096331;27;45359;-71
2022/03/05 01:25:28;;;;;;;;;52.00;40.00;;;;;8.99;77.77;100957.78;5094773;27;45381;-65
2022/03/05 01:27:54;;;;;;;;;51.00;40.50;;;;;9.06;78.04;100963.72;5096083;27;45304;-69
2022/03/05 01:30:20;;;;;;;;;57.75;44.75;;;;;9.07;77.98;100960.22;5095934;27;45385;-68
2022/03/05 01:32:46;;;;;;;;;48.75;41.25;;;;;9.04;77.33;100961.16;5094591;27;45435;-67
2022/03/05 01:35:11;;;;;;;;;52.75;40.25;;;;;9.02;77.46;100962.97;5095972;27;45360;-70
2022/03/05 01:37:37;;;;;;;;;56.50;43.50;;;;;9.00;78.04;100956.88;5095454;27;45637;-71
2022/03/05 01:40:03;;;;;;;;;57.00;43.00;;;;;9.00;77.78;100959.50;5113401;27;45897;-71
2022/03/05 01:42:29;;;;;;;;;51.00;39.75;;;;;9.04;77.93;100960.28;5099212;27;45293;-67
2022/03/05 01:44:54;;;;;;;;;49.75;39.50;;;;;9.10;77.31;100960.13;5099683;27;45365;-68
2022/03/05 01:47:19;;;;;;;;;48.50;39.50;;;;;9.11;77.60;100959.22;5098901;27;45306;-70
2022/03/05 01:49:45;;;;;;;;;49.50;39.50;;;;;9.15;77.84;100968.72;5098973;27;45464;-71
2022/03/05 01:52:11;;;;;;;;;52.00;38.50;;;;;9.14;77.24;100967.00;5097769;27;45417;-68
2022/03/05 01:54:37;;;;;;;;;49.50;39.50;;;;;9.14;77.14;100956.50;5099357;27;45224;-69
2022/03/05 01:57:03;;;;;;;;;53.00;40.75;;;;;9.10;77.14;100965.38;5099368;27;45513;-68
2022/03/05 01:59:29;;;;;;;;;50.25;39.75;;;;;9.05;76.95;100970.75;5099386;27;45398;-70
2022/03/05 02:01:54;;;;;;;;;48.25;38.50;;;;;8.96;77.42;100962.28;5083205;27;45450;-70
2022/03/05 02:04:20;;;;;;;;;50.00;41.00;;;;;8.87;77.54;100966.88;5077414;27;45551;-71
2022/03/05 02:06:45;;;;;;;;;51.75;40.50;;;;;8.79;77.74;100960.09;5093802;27;48461;-69
2022/03/05 02:09:11;;;;;;;;;48.00;39.25;;;;;8.80;77.95;100960.06;5078299;27;45425;-68
2022/03/05 02:11:36;;;;;;;;;45.25;36.25;;;;;8.82;78.11;100968.75;5078468;27;45541;-72
2022/03/05 02:14:02;;;;;;;;;54.25;37.50;;;;;8.76;77.98;100966.28;5077327;27;45413;-70
2022/03/05 02:16:28;;;;;;;;;49.75;39.00;;;;;8.74;78.17;100965.47;5078675;27;45981;-70
2022/03/05 02:18:55;;;;;;;;;50.00;38.50;;;;;8.70;78.33;100956.81;5078577;27;45299;-70
2022/03/05 02:21:22;;;;;;;;;52.00;40.00;;;;;8.64;78.19;100956.13;5078680;27;45335;-71
2022/03/05 02:23:47;;;;;;;;;53.50;39.25;;;;;8.59;77.87;100958.84;5078591;27;45435;-72
2022/03/05 02:26:13;;;;;;;;;48.00;38.75;;;;;8.53;78.28;100965.13;5077902;27;45351;-71
2022/03/05 02:28:38;;;;;;;;;49.25;37.50;;;;;8.47;78.75;100957.34;5078141;27;45258;-69
2022/03/05 02:31:05;;;;;;;;;52.25;40.75;;;;;8.44;78.82;100958.31;5076987;27;45499;-71
2022/03/05 02:33:30;;;;;;;;;53.75;42.50;;;;;8.48;78.67;100965.19;5077477;27;45400;-72
2022/03/05 02:35:55;;;;;;;;;49.75;39.00;;;;;8.49;78.94;100958.25;5078179;27;46090;-71
2022/03/05 02:38:23;;;;;;;;;53.00;40.25;;;;;8.53;79.00;100954.66;5076544;27;45361;-69
2022/03/05 02:40:49;;;;;;;;;52.00;39.00;;;;;8.57;78.93;100955.41;5078318;27;45280;-69
2022/03/05 02:43:16;;;;;;;;;51.50;39.25;;;;;8.59;78.94;100954.47;5078168;27;45496;-69
2022/03/05 02:45:41;;;;;;;;;44.75;36.25;;;;;8.61;78.64;100957.94;5077548;27;45434;-68
2022/03/05 02:48:10;;;;;;;;;45.50;36.00;;;;;8.64;78.72;100956.13;5093334;27;45502;-70
2022/03/05 02:50:36;;;;;;;;;46.75;37.50;;;;;8.65;78.68;100950.81;5075433;27;45379;-71
2022/03/05 02:53:02;;;;;;;;;45.25;34.25;;;;;8.68;78.25;100953.38;5077771;27;45502;-69
2022/03/05 02:55:28;;;;;;;;;45.25;35.00;;;;;8.68;77.93;100948.13;5077806;27;46444;-70
2022/03/05 02:57:54;;;;;;;;;47.75;39.25;;;;;8.67;77.91;100948.19;5077239;27;45262;-66
2022/03/05 03:00:19;;;;;;;;;49.75;39.25;;;;;8.69;78.01;100949.84;5077749;27;45235;-66
2022/03/05 03:02:45;;;;;;;;;48.00;37.50;;;;;8.67;78.22;100946.41;5077706;27;45351;-70
2022/03/05 03:05:14;;;;;;;;;46.25;36.50;;;;;8.66;77.92;100946.47;5077247;27;45427;-69
2022/03/05 03:07:40;;;;;;;;;45.25;37.00;;;;;8.64;77.89;100945.63;5077678;27;45654;-69
2022/03/05 03:10:06;;;;;;;;;47.75;38.00;;;;;8.61;78.00;100939.56;5093432;27;45246;-71
2022/03/05 03:12:32;;;;;;;;;43.75;33.75;;;;;8.64;77.84;100941.25;5077902;27;45362;-73
2022/03/05 03:14:57;;;;;;;;;46.00;35.50;;;;;8.65;77.48;100942.97;5077932;27;45374;-71
2022/03/05 03:17:23;;;;;;;;;43.75;36.00;;;;;8.67;77.95;100949.03;5106247;27;45409;-71
2022/03/05 03:19:49;;;;;;;;;47.00;36.25;;;;;8.69;77.69;100947.22;5075167;27;45482;-70
2022/03/05 03:22:14;;;;;;;;;46.00;35.75;;;;;8.72;77.38;100941.06;5077708;27;45658;-69
2022/03/05 03:24:41;;;;;;;;;53.50;38.75;;;;;8.73;77.17;100943.63;5075896;27;46985;-69
2022/03/05 03:27:06;;;;;;;;;49.50;38.00;;;;;8.74;77.63;100944.50;5077042;27;45453;-69
2022/03/05 03:29:32;;;;;;;;;47.50;36.75;;;;;8.79;77.60;100947.84;5077335;27;45275;-67
2022/03/05 03:31:57;;;;;;;;;46.75;35.50;;;;;8.83;76.73;100956.47;5077765;27;45465;-69
2022/03/05 03:34:23;;;;;;;;;49.00;40.00;;;;;8.80;77.38;100949.56;5076925;28;45997;-70
2022/03/05 03:36:48;;;;;;;;;52.00;37.75;;;;;8.83;77.22;100946.00;5076761;27;45358;-69
2022/03/05 03:39:13;;;;;;;;;48.25;37.25;;;;;8.76;77.26;100947.94;5077014;27;45458;-69
2022/03/05 03:41:39;;;;;;;;;46.75;36.50;;;;;8.71;78.02;100944.56;5092873;27;45501;-69
2022/03/05 03:44:05;;;;;;;;;40.00;33.00;;;;;8.68;77.49;100942.88;5076689;27;46565;-66
2022/03/05 03:46:30;;;;;;;;;47.75;37.00;;;;;8.64;78.19;100935.16;5077004;27;45196;-68
2022/03/05 03:48:56;;;;;;;;;46.00;37.00;;;;;8.53;78.82;100932.78;5076824;27;45275;-69
2022/03/05 03:51:21;;;;;;;;;46.25;37.50;;;;;8.49;78.97;100932.03;5076338;27;45491;-68
2022/03/05 03:53:47;;;;;;;;;47.75;38.25;;;;;8.47;78.60;100939.88;5076305;27;46455;-69
2022/03/05 03:56:13;;;;;;;;;55.50;38.00;;;;;8.42;78.64;100939.13;5092160;27;45740;-67
2022/03/05 03:58:39;;;;;;;;;46.25;37.00;;;;;8.40;78.81;100943.56;5076743;27;45278;-67
2022/03/05 04:01:05;;;;;;;;;48.75;37.25;;;;;8.38;78.94;100937.50;5075929;27;45334;-69
2022/03/05 04:03:30;;;;;;;;;47.25;36.00;;;;;8.36;79.46;100939.31;5076632;27;46113;-69
2022/03/05 04:05:56;;;;;;;;;53.00;37.50;;;;;8.33;78.87;100942.00;5075339;28;45423;-68
2022/03/05 04:11:07;;;;;;;;;46.50;36.50;;;;;8.28;79.43;100939.47;5076964;28;45327;-65
2022/03/05 04:13:33;;;;;;;;;47.25;36.25;;;;;8.23;79.42;100938.72;5076657;27;45379;-70
2022/03/05 04:15:58;;;;;;;;;49.00;38.00;;;;;8.24;79.34;100943.06;5076411;27;45341;-68
2022/03/05 04:18:24;;;;;;;;;48.50;37.75;;;;;8.27;79.41;100945.63;5076429;27;45492;-70
2022/03/05 04:20:49;;;;;;;;;51.75;38.00;;;;;8.30;79.48;100937.69;5076634;27;45510;-70
2022/03/05 04:23:15;;;;;;;;;51.50;37.00;;;;;8.34;78.69;100944.56;5076141;27;45453;-69
2022/03/05 04:25:41;;;;;;;;;47.50;37.50;;;;;8.29;78.97;100935.97;5076267;27;45360;-71
2022/03/05 04:28:07;;;;;;;;;47.00;36.00;;;;;8.32;79.11;100941.13;5076421;27;45228;-70
2022/03/05 04:30:32;;;;;;;;;45.75;37.25;;;;;8.34;79.04;100944.56;5076664;27;45453;-71
2022/03/05 04:32:58;;;;;;;;;48.25;38.25;;;;;8.34;78.41;100941.94;5075936;27;46390;-70
2022/03/05 04:35:23;;;;;;;;;48.50;38.25;;;;;8.34;78.81;100943.72;5076243;27;45224;-70
2022/03/05 04:37:51;;;;;;;;;47.00;37.25;;;;;8.34;78.64;100943.72;5076303;27;45238;-70
2022/03/05 04:40:17;;;;;;;;;48.25;35.25;;;;;8.30;78.65;100944.69;5076212;27;45318;-72
2022/03/05 04:42:42;;;;;;;;;48.50;37.25;;;;;8.27;78.72;100950.88;5075975;27;45420;-70
2022/03/05 04:45:08;;;;;;;;;46.75;37.00;;;;;8.29;78.70;100951.69;5074898;28;45343;-71
2022/03/05 04:47:34;;;;;;;;;49.50;39.00;;;;;8.29;78.57;100950.84;5076784;27;45313;-71
2022/03/05 04:50:00;;;;;;;;;50.00;38.50;;;;;8.28;78.88;100949.97;5076324;27;45562;-70
2022/03/05 04:52:25;;;;;;;;;50.00;38.00;;;;;8.29;78.46;100950.84;5075734;27;46281;-69
2022/03/05 04:54:51;;;;;;;;;50.50;37.00;;;;;8.31;78.70;100944.63;5091782;27;45428;-70
2022/03/05 04:57:16;;;;;;;;;49.25;36.00;;;;;8.32;78.36;100953.38;5075886;27;45392;-69
2022/03/05 04:59:42;;;;;;;;;48.00;35.00;;;;;8.33;78.31;100955.94;5075985;27;45384;-71
2022/03/05 05:02:07;;;;;;;;;41.75;34.50;;;;;8.32;78.49;100946.38;5075762;27;46123;-70
2022/03/05 05:04:32;;;;;;;;;48.00;37.00;;;;;8.34;78.00;100949.81;5075906;27;45355;-69
2022/03/05 05:06:58;;;;;;;;;50.25;39.00;;;;;8.35;78.12;100945.44;5091350;27;45332;-71
2022/03/05 05:09:23;;;;;;;;;49.00;37.25;;;;;8.41;78.17;100949.66;5075820;27;45219;-71
2022/03/05 05:11:49;;;;;;;;;47.25;37.50;;;;;8.41;76.95;100949.66;5075766;27;45943;-71
2022/03/05 05:14:14;;;;;;;;;50.75;41.25;;;;;8.43;76.73;100951.34;5074466;27;45258;-71
2022/03/05 05:16:39;;;;;;;;;52.25;39.00;;;;;8.42;77.33;100952.25;5075663;27;45450;-70
2022/03/05 05:21:49;;;;;;;;;44.50;37.00;;;;;8.45;77.10;100962.66;5075537;27;45531;-70
2022/03/05 05:24:14;;;;;;;;;48.50;37.50;;;;;8.44;77.26;100958.31;5075579;27;45461;-70
2022/03/05 05:26:40;;;;;;;;;49.00;37.75;;;;;8.43;77.96;100959.22;5075733;27;45219;-69
2022/03/05 05:29:05;;;;;;;;;45.75;38.00;;;;;8.43;77.51;100959.22;5076116;27;45504;-72
2022/03/05 05:31:31;;;;;;;;;46.75;39.00;;;;;8.46;77.70;100966.13;5075242;27;45391;-69
2022/03/05 05:33:56;;;;;;;;;56.75;39.50;;;;;8.43;77.30;100974.06;5075184;27;45489;-70
2022/03/05 05:36:23;;;;;;;;;41.75;34.50;;;;;8.42;77.65;100970.59;5075417;27;45352;-71
2022/03/05 05:38:48;;;;;;;;;50.75;39.25;;;;;8.42;77.07;100972.34;5075348;27;45586;-71
2022/03/05 05:41:15;;;;;;;;;44.75;35.00;;;;;8.36;77.49;100978.63;5075213;28;46314;-71
2022/03/05 05:43:40;;;;;;;;;50.00;39.75;;;;;8.33;77.49;100968.22;5075284;27;45533;-70
2022/03/05 05:46:05;;;;;;;;;48.00;40.00;;;;;8.33;77.69;100979.53;5074628;28;45375;-68
2022/03/05 05:48:31;;;;;;;;;50.00;40.75;;;;;8.31;77.79;100977.88;5075750;27;45332;-71
2022/03/05 05:50:56;;;;;;;;;47.50;39.75;;;;;8.32;77.93;100983.06;5074916;27;45335;-69
2022/03/05 05:53:23;;;;;;;;;54.00;42.00;;;;;8.30;78.20;100976.16;5074928;28;45161;-69
2022/03/05 05:55:48;;;;;;;;;46.50;37.75;;;;;8.33;78.07;100979.53;5075288;27;45240;-72
2022/03/05 05:58:14;;;;;;;;;56.25;39.50;;;;;8.33;78.03;100983.94;5075114;28;45259;-71
2022/03/05 06:00:39;;;;;;;;;53.75;39.75;;;;;8.34;78.07;100983.88;5075019;27;46517;-65
2022/03/05 06:03:04;;;;;;;;;50.50;40.50;;;;;8.39;77.70;100981.16;5075419;27;45325;-70
2022/03/05 06:05:30;;;;;;;;;52.75;41.25;;;;;8.39;77.56;100989.03;5075031;27;45604;-69
2022/03/05 06:07:56;;;;;;;;;53.50;41.50;;;;;8.37;77.17;100984.72;5075395;27;45484;-70
2022/03/05 06:10:21;;;;;;;;;54.25;40.50;;;;;8.36;77.78;100989.09;5074680;27;45317;-69
2022/03/05 06:12:48;;;;;;;;;50.00;37.00;;;;;8.33;77.59;100986.56;5074820;27;45456;-68
2022/03/05 06:15:14;;;;;;;;;48.00;36.75;;;;;8.30;77.30;100992.72;5075062;27;45286;-71
2022/03/05 06:17:43;;;;;;;;;51.75;41.25;;;;;8.30;78.09;100991.88;5075505;27;45558;-72
2022/03/05 06:20:10;;;;;;;;;49.00;37.25;;;;;8.30;77.89;100984.84;5074996;27;45390;-69
2022/03/05 06:22:36;;;;;;;;;44.25;36.25;;;;;8.30;78.21;100991.88;5075292;27;45435;-70
2022/03/05 06:25:01;;;;;;;;;50.75;37.25;;;;;8.23;78.23;100979.81;5075673;27;45360;-70
2022/03/05 06:27:26;;;;;;;;;56.00;42.25;;;;;8.30;77.71;101000.59;5078715;27;45321;-68
2022/03/05 06:29:52;;;;;;;;;53.25;38.75;;;;;8.32;77.73;100996.16;5078200;27;45758;-71
2022/03/05 06:32:17;;;;;;;;;51.25;37.00;;;;;8.33;78.01;100995.28;5078126;27;45427;-71
2022/03/05 06:34:42;;;;;;;;;50.50;38.75;;;;;8.31;77.82;100996.22;5078115;27;45374;-69
2022/03/05 06:37:08;;;;;;;;;50.25;39.50;;;;;8.31;78.29;100997.06;5078841;27;45314;-71
2022/03/05 06:39:33;;;;;;;;;53.50;40.00;;;;;8.33;77.93;101003.13;5077867;27;45387;-70
2022/03/05 06:41:58;;;;;;;;;49.00;38.75;;;;;8.36;77.87;101002.22;5077770;27;45366;-70
2022/03/05 06:44:24;;;;;;;;;48.00;36.50;;;;;8.36;78.26;101003.94;5078806;27;45801;-70
2022/03/05 06:46:49;;;;;;;;;49.75;38.75;;;;;8.38;77.87;101008.28;5079658;27;45501;-69
2022/03/05 06:49:17;;;;;;;;;55.50;43.50;;;;;8.39;78.33;101014.38;5077458;27;46207;-70
2022/03/05 06:51:42;;;;;;;;;55.00;42.25;;;;;8.36;77.80;101014.44;5078020;27;45305;-70
2022/03/05 06:54:10;;;;;;;;;49.50;40.00;;;;;8.36;78.55;101017.06;5078511;27;45271;-72
2022/03/05 06:56:36;;;;;;;;;47.00;37.25;;;;;8.35;78.30;101013.59;5076970;28;45388;-69
2022/03/05 06:59:01;;;;;;;;;50.00;39.50;;;;;8.32;78.28;101014.50;5077486;27;45873;-68
2022/03/05 07:01:27;;;;;;;;;51.25;42.00;;;;;8.33;78.11;101008.38;5077746;27;45248;-69
2022/03/05 07:03:52;;;;;;;;;53.25;42.25;;;;;8.42;78.14;101022.16;5077337;27;45415;-69
2022/03/05 07:06:17;;;;;;;;;48.25;39.25;;;;;8.45;77.70;101015.09;5078217;27;45313;-72
2022/03/05 07:08:43;;;;;;;;;54.50;43.00;;;;;8.50;77.87;101016.78;5077650;27;45255;-68
2022/03/05 07:11:08;;;;;;;;;49.75;38.00;;;;;8.53;77.68;101025.44;5077553;27;45441;-70
2022/03/05 07:13:34;;;;;;;;;59.50;44.00;;;;;8.57;76.99;101034.94;5077496;27;45435;-69
2022/03/05 07:16:00;;;;;;;;;49.50;37.75;;;;;8.59;76.75;101032.28;5077343;27;45614;-66
2022/03/05 07:18:25;;;;;;;;;54.25;41.00;;;;;8.62;76.72;101038.31;5076924;27;46039;-69
2022/03/05 07:20:51;;;;;;;;;51.00;39.75;;;;;8.66;76.63;101028.59;5076951;27;45262;-70
2022/03/05 07:23:16;;;;;;;;;55.00;41.25;;;;;8.65;76.18;101028.66;5077045;27;45244;-71
2022/03/05 07:25:43;;;;;;;;;49.50;39.00;;;;;8.66;76.04;101027.75;5077596;27;45477;-68
2022/03/05 07:28:10;;;;;;;;;53.00;42.25;;;;;8.67;76.40;101035.56;5093058;27;48263;-70
2022/03/05 07:30:37;;;;;;;;;54.25;42.25;;;;;8.66;76.72;101028.59;5077175;27;45283;-70
2022/03/05 07:33:02;;;;;;;;;54.00;41.25;;;;;8.75;76.38;101032.75;5092564;27;45459;-70
2022/03/05 07:35:28;;;;;;;;;50.75;40.00;;;;;8.76;75.57;101042.34;5077154;27;45569;-72
2022/03/05 07:37:53;;;;;;;;;51.75;41.00;;;;;8.76;75.49;101031.88;5076353;27;45369;-70
2022/03/05 07:40:18;;;;;;;;;43.25;35.25;;;;;8.81;75.33;101043.09;5075406;27;45438;-68
2022/03/05 07:42:44;;;;;;;;;54.00;43.00;;;;;8.85;75.16;101044.75;5077310;27;45247;-69
2022/03/05 07:45:09;;;;;;;;;50.75;40.00;;;;;8.86;75.01;101050.84;5077525;27;45268;-69
2022/03/05 07:47:35;;;;;;;;;49.00;39.00;;;;;8.88;75.07;101054.28;5076486;27;46007;-66
2022/03/05 07:50:01;;;;;;;;;51.25;40.50;;;;;8.88;74.49;101054.28;5076808;27;45405;-67
2022/03/05 07:52:27;;;;;;;;;49.50;42.00;;;;;8.83;74.79;101059.66;5076733;27;45303;-69
2022/03/05 07:54:52;;;;;;;;;55.75;43.75;;;;;8.81;74.47;101060.59;5077105;27;45262;-71
2022/03/05 07:57:18;;;;;;;;;51.50;42.75;;;;;8.82;74.65;101062.31;5076433;27;46469;-70
2022/03/05 07:59:43;;;;;;;;;52.75;42.25;;;;;8.82;74.51;101057.06;5076814;27;45463;-70
2022/03/05 08:02:10;;;;;;;;;53.25;41.75;;;;;8.83;74.28;101061.41;5092233;27;45271;-67
2022/03/05 08:04:35;;;;;;;;;50.50;40.75;;;;;8.79;74.37;101052.78;5076901;27;45955;-68
2022/03/05 08:07:01;;;;;;;;;57.25;44.50;;;;;8.81;74.52;101058.84;5076625;27;45494;-68
2022/03/05 08:09:26;;;;;;;;;52.50;43.25;;;;;8.87;74.64;101065.69;5076345;27;45406;-70
2022/03/05 08:11:52;;;;;;;;;57.75;44.00;;;;;8.96;74.24;101065.44;5076662;27;45377;-68
2022/03/05 08:14:17;;;;;;;;;52.00;42.75;;;;;9.02;74.17;101062.69;5076698;27;45400;-71
2022/03/05 08:16:42;;;;;;;;;47.25;39.75;;;;;9.11;74.58;101058.09;5077218;27;45421;-71
2022/03/05 08:19:08;;;;;;;;;50.50;42.25;;;;;9.25;73.64;101061.22;5076338;27;45321;-69
2022/03/05 08:21:33;;;;;;;;;53.50;42.00;;;;;9.33;72.73;101064.50;5076475;27;45664;-69
2022/03/05 08:23:59;;;;;;;;;40.25;33.25;;;;;9.41;72.97;101068.66;5076620;27;45581;-71
2022/03/05 08:26:24;;;;;;;;;52.25;41.00;;;;;9.46;71.89;101067.63;5076158;27;45677;-70
2022/03/05 08:28:50;;;;;;;;;52.75;40.25;;;;;9.45;71.66;101060.66;5076103;27;45337;-67
2022/03/05 08:31:16;;;;;;;;;47.75;39.75;;;;;9.52;71.87;101065.72;5076729;27;45345;-70
2022/03/05 08:33:42;;;;;;;;;50.00;39.00;;;;;9.55;71.95;101055.16;5076605;27;45262;-70
2022/03/05 08:36:08;;;;;;;;;56.00;42.25;;;;;9.65;72.69;101057.47;5076300;28;45448;-72
2022/03/05 08:38:34;;;;;;;;;47.25;36.50;;;;;9.71;71.83;101060.81;5076036;27;45308;-70
2022/03/05 08:41:01;;;;;;;;;50.25;41.25;;;;;9.81;71.36;101070.16;5075942;27;45373;-69
2022/03/05 08:43:27;;;;;;;;;49.50;39.25;;;;;9.90;70.81;101067.25;5076572;27;45424;-68
2022/03/05 08:45:53;;;;;;;;;50.50;40.25;;;;;9.96;70.55;101066.22;5074597;28;45513;-66
2022/03/05 08:48:19;;;;;;;;;51.00;41.25;;;;;10.12;70.00;101074.53;5073742;27;45570;-69
2022/03/05 08:50:45;;;;;;;;;49.25;39.75;;;;;10.18;70.10;101068.19;5075949;28;45326;-69
2022/03/05 08:53:10;;;;;;;;;49.50;39.00;;;;;10.27;69.53;101062.66;5076563;28;45643;-71
2022/03/05 08:55:36;;;;;;;;;54.75;41.75;;;;;10.35;69.48;101055.38;5074899;27;46344;-71
2022/03/05 08:58:02;;;;;;;;;52.75;42.00;;;;;10.54;69.00;101065.34;5075779;27;45336;-69
2022/03/05 09:00:28;;;;;;;;;50.25;38.25;;;;;10.68;68.07;101066.69;5076042;27;45242;-71
2022/03/05 09:02:53;;;;;;;;;52.75;39.75;;;;;10.75;68.05;101078.75;5074759;27;45294;-70
2022/03/05 09:05:19;;;;;;;;;48.75;38.75;;;;;10.68;67.48;101057.03;5075643;27;45283;-71
2022/03/05 09:07:45;;;;;;;;;53.50;39.25;;;;;10.71;66.51;101058.69;5075771;27;45292;-70
2022/03/05 09:10:11;;;;;;;;;52.00;39.25;;;;;10.73;66.74;101054.25;5091352;27;45277;-71
2022/03/05 09:12:37;;;;;;;;;47.50;37.25;;;;;10.92;66.89;101067.63;5075815;27;45355;-66
2022/03/05 09:15:05;;;;;;;;;49.25;39.50;;;;;10.94;66.31;101065.81;5075397;27;46094;-71
2022/03/05 09:17:30;;;;;;;;;51.00;40.25;;;;;11.01;66.23;101069.94;5075369;27;45277;-70
2022/03/05 09:19:57;;;;;;;;;51.75;40.50;;;;;11.16;66.13;101068.56;5075633;27;45284;-71
2022/03/05 09:22:22;;;;;;;;;53.50;41.00;;;;;11.33;66.17;101070.63;5075888;28;45345;-70
2022/03/05 09:24:48;;;;;;;;;46.75;37.75;;;;;11.42;65.15;101058.88;5091147;27;47043;-66
2022/03/05 09:27:13;;;;;;;;;57.00;42.25;;;;;11.62;65.31;101065.19;5090851;27;45264;-67
2022/03/05 09:29:39;;;;;;;;;48.25;38.25;;;;;11.79;65.28;101076.00;5090844;27;45375;-70
2022/03/05 09:32:05;;;;;;;;;51.00;38.25;;;;;11.94;64.88;101078.97;5075815;27;45599;-65
2022/03/05 09:34:31;;;;;;;;;48.00;36.25;;;;;12.06;63.76;101072.38;5075089;27;47289;-71
2022/03/05 09:36:56;;;;;;;;;47.50;36.50;;;;;12.17;63.75;101067.53;5075403;27;45448;-71
2022/03/05 09:39:22;;;;;;;;;52.75;40.75;;;;;12.17;63.16;101059.63;5075477;27;45324;-72
2022/03/05 09:41:48;;;;;;;;;43.50;36.75;;;;;12.23;62.92;101066.47;5075936;27;45264;-66
2022/03/05 09:44:13;;;;;;;;;51.75;38.25;;;;;12.30;62.25;101075.00;5075332;27;46402;-66
2022/03/05 09:46:41;;;;;;;;;53.50;39.75;;;;;12.25;61.89;101073.41;5075432;27;45407;-69
2022/03/05 09:49:08;;;;;;;;;56.75;42.00;;;;;12.25;62.28;101068.13;5091049;27;45258;-72
2022/03/05 09:51:34;;;;;;;;;61.75;48.00;;;;;12.19;62.11;101062.22;5075286;27;45243;-69
2022/03/05 09:54:02;;;;;;;;;51.75;41.50;;;;;12.19;62.17;101070.13;5074701;27;46940;-71
2022/03/05 09:56:28;;;;;;;;;47.25;38.50;;;;;12.16;61.67;101062.34;5074982;27;45364;-66
2022/03/05 09:58:55;;;;;;;;;46.75;36.50;;;;;12.15;61.64;101071.19;5074608;27;45366;-68
2022/03/05 10:01:20;;;;;;;;;46.00;36.50;;;;;12.05;61.49;101073.31;5077009;28;45457;-69
2022/03/05 10:03:55;;;;;;;;;48.00;36.75;;;;;11.97;61.62;101070.94;5078680;27;45241;-71
2022/03/05 10:06:22;;;;;;;;;48.25;37.50;;;;;11.93;61.50;101074.63;5078858;27;45398;-67
2022/03/05 10:08:52;;;;;;;;;48.00;37.50;;;;;11.88;60.99;101072.13;5111896;27;45363;-70
2022/03/05 10:11:19;;;;;;;;;47.75;39.75;;;;;11.82;61.34;101070.59;5078852;27;45520;-69
2022/03/05 10:13:45;;;;;;;;;50.00;38.75;;;;;11.69;61.55;101077.25;5078148;27;46518;-69
2022/03/05 10:16:31;;;;;;;;;46.00;36.00;;;;;11.58;61.92;101067.09;5078570;27;45543;-67
2022/03/05 10:18:58;;;;;;;;;47.75;37.75;;;;;11.51;61.44;101070.88;5078188;27;45223;-66
2022/03/05 10:21:29;;;;;;;;;49.00;38.25;;;;;11.47;61.92;101070.09;5078533;27;45275;-68
2022/03/05 10:24:07;;;;;;;;;49.25;36.50;;;;;11.45;61.92;101077.22;5076393;27;46387;-68
2022/03/05 10:26:50;;;;;;;;;50.75;40.00;;;;;11.46;61.79;101067.53;5078015;27;45227;-67
2022/03/05 10:29:27;;;;;;;;;55.75;43.75;;;;;11.48;62.01;101061.28;5077720;27;45301;-70
2022/03/05 10:32:01;;;;;;;;;50.50;41.00;;;;;11.51;61.62;101068.25;5078801;27;45180;-71
2022/03/05 10:34:29;;;;;;;;;48.25;37.75;;;;;11.49;61.75;101067.44;5077784;27;45532;-74
2022/03/05 10:37:02;;;;;;;;;48.50;37.75;;;;;11.52;61.59;101068.16;5078171;27;45781;-72
2022/03/05 10:39:28;;;;;;;;;58.50;43.00;;;;;11.47;60.87;101064.84;5076464;28;45356;-66
2022/03/05 10:41:57;;;;;;;;;57.00;45.50;;;;;11.45;61.27;101065.81;5078170;27;45418;-67
2022/03/05 10:44:23;;;;;;;;;49.00;39.50;;;;;11.47;60.01;101075.38;5078210;27;46253;-68
2022/03/05 10:47:02;;;;;;;;;44.00;37.75;;;;;11.48;59.79;101069.19;5077952;27;45382;-72
2022/03/05 10:49:33;;;;;;;;;47.75;38.75;;;;;11.48;58.81;101050.75;5077817;27;45227;-68
2022/03/05 10:52:02;;;;;;;;;42.00;35.25;;;;;11.68;59.75;101070.25;5078245;27;45287;-70
2022/03/05 10:54:32;;;;;;;;;52.50;42.25;;;;;11.70;59.27;101065.81;5076406;28;47318;-71
2022/03/05 10:57:05;;;;;;;;;52.25;42.25;;;;;11.83;59.11;101066.19;5077177;27;45344;-68
2022/03/05 10:59:35;;;;;;;;;52.75;40.75;;;;;11.92;58.61;101065.84;5077383;27;45374;-69
2022/03/05 11:02:01;;;;;;;;;49.75;38.75;;;;;11.92;57.45;101065.00;5077682;27;45533;-70
2022/03/05 11:04:29;;;;;;;;;53.00;43.00;;;;;12.00;58.13;101060.31;5075777;28;46490;-67
2022/03/05 11:06:56;;;;;;;;;51.50;40.50;;;;;12.06;56.93;101062.72;5075933;27;45298;-68
2022/03/05 11:09:23;;;;;;;;;50.75;40.00;;;;;12.15;57.27;101055.34;5093508;27;45470;-70
2022/03/05 11:11:52;;;;;;;;;41.50;35.00;;;;;12.22;55.31;101054.19;5076658;27;45438;-70
2022/03/05 11:14:17;;;;;;;;;43.00;34.75;;;;;12.18;55.21;101055.25;5077156;27;45339;-67